Avon, Indiana
Current Conditions -  °F | °C
As of 7:53 PM on Sunday 23 Nov 2014 (Local Time) from KEYE Reporting Station
Moderate Rain Moderate Rain  
Wind Chill: 52°   Ceiling: 700
Heat Index: 52°   Visibility: 4mi
Dew Point: 52°   Wind: 9mph
Humidity: 100%   Direction: 130°SE
Pressure: 29.33"   Gusts: NA
Location:  39.76°N, 86.4°W
Report Text: KEYE 240053Z AUTO 13008KT 4SM RA BR BKN007 OVC012 11/11 A2933 RMK AO2 CIG 004V009 SLP931 P0017 T01110111 $
Loading
Personal Weather Stations






























Interactive Weather Map New forecast layout! Learn more

10-Day Weather Forecast

Advertisements
Track Severe Weather on mobile